sensor_id;sensor_type;location;lat;lon;timestamp;temperature;humidity
81313;DHT22;70780;52.722;5.724;2023-07-20T09:55:54;23.50;60.50
81313;DHT22;70780;52.722;5.724;2023-07-20T09:58:26;23.50;60.40
81313;DHT22;70780;52.722;5.724;2023-07-20T10:00:57;23.50;60.30
81313;DHT22;70780;52.722;5.724;2023-07-20T10:03:30;23.50;59.60
81313;DHT22;70780;52.722;5.724;2023-07-20T10:06:02;23.50;59.00
81313;DHT22;70780;52.722;5.724;2023-07-20T10:08:37;23.50;58.60
81313;DHT22;70780;52.722;5.724;2023-07-20T10:11:12;23.50;58.50
81313;DHT22;70780;52.722;5.724;2023-07-20T10:13:47;23.50;58.30
81313;DHT22;70780;52.722;5.724;2023-07-20T10:16:22;23.50;58.20
81313;DHT22;70780;52.722;5.724;2023-07-20T10:19:02;23.50;58.20
81313;DHT22;70780;52.722;5.724;2023-07-20T10:21:33;23.50;58.20
81313;DHT22;70780;52.722;5.724;2023-07-20T10:24:05;23.50;58.20
81313;DHT22;70780;52.722;5.724;2023-07-20T10:26:37;23.50;58.20
81313;DHT22;70780;52.722;5.724;2023-07-20T10:29:07;23.60;58.20
81313;DHT22;70780;52.722;5.724;2023-07-20T10:31:37;23.60;58.20
81313;DHT22;70780;52.722;5.724;2023-07-20T10:34:07;23.60;58.20
81313;DHT22;70780;52.722;5.724;2023-07-20T10:36:44;23.60;58.20
81313;DHT22;70780;52.722;5.724;2023-07-20T10:39:23;23.60;58.20
81313;DHT22;70780;52.722;5.724;2023-07-20T10:42:03;23.60;58.20
81313;DHT22;70780;52.722;5.724;2023-07-20T10:44:33;23.60;58.10
81313;DHT22;70780;52.722;5.724;2023-07-20T10:47:03;23.60;58.10
81313;DHT22;70780;52.722;5.724;2023-07-20T10:49:57;23.60;58.10
81313;DHT22;70780;52.722;5.724;2023-07-20T10:52:36;23.60;58.00
81313;DHT22;70780;52.722;5.724;2023-07-20T10:55:11;23.60;58.00
81313;DHT22;70780;52.722;5.724;2023-07-20T10:58:08;23.60;58.00
81313;DHT22;70780;52.722;5.724;2023-07-20T11:00:56;23.60;58.10
81313;DHT22;70780;52.722;5.724;2023-07-20T11:03:30;23.60;58.10
81313;DHT22;70780;52.722;5.724;2023-07-20T11:06:30;23.70;58.10
81313;DHT22;70780;52.722;5.724;2023-07-20T11:09:06;23.70;58.10
81313;DHT22;70780;52.722;5.724;2023-07-20T11:11:38;23.80;58.10
81313;DHT22;70780;52.722;5.724;2023-07-20T11:14:19;23.80;58.10
81313;DHT22;70780;52.722;5.724;2023-07-20T11:16:50;23.80;58.20
81313;DHT22;70780;52.722;5.724;2023-07-20T11:19:20;23.80;58.20
81313;DHT22;70780;52.722;5.724;2023-07-20T11:21:51;23.80;58.20
81313;DHT22;70780;52.722;5.724;2023-07-20T11:24:21;23.90;58.20
81313;DHT22;70780;52.722;5.724;2023-07-20T11:26:51;23.90;58.20
81313;DHT22;70780;52.722;5.724;2023-07-20T11:29:23;23.90;58.20
81313;DHT22;70780;52.722;5.724;2023-07-20T11:31:53;23.90;58.20
81313;DHT22;70780;52.722;5.724;2023-07-20T11:34:23;24.00;58.10
81313;DHT22;70780;52.722;5.724;2023-07-20T11:36:53;24.00;58.10
81313;DHT22;70780;52.722;5.724;2023-07-20T11:39:23;24.00;58.00
81313;DHT22;70780;52.722;5.724;2023-07-20T11:41:54;24.00;58.00
81313;DHT22;70780;52.722;5.724;2023-07-20T11:44:27;24.10;58.00
81313;DHT22;70780;52.722;5.724;2023-07-20T11:47:00;24.20;57.90
81313;DHT22;70780;52.722;5.724;2023-07-20T11:49:34;24.20;57.90
81313;DHT22;70780;52.722;5.724;2023-07-20T11:52:04;24.20;57.90
81313;DHT22;70780;52.722;5.724;2023-07-20T11:54:34;24.20;57.90
81313;DHT22;70780;52.722;5.724;2023-07-20T11:57:04;24.20;58.00
81313;DHT22;70780;52.722;5.724;2023-07-20T11:59:36;24.20;57.90
81313;DHT22;70780;52.722;5.724;2023-07-20T12:02:06;24.20;57.90
81313;DHT22;70780;52.722;5.724;2023-07-20T12:04:35;24.20;58.00
81313;DHT22;70780;52.722;5.724;2023-07-20T12:07:07;24.20;58.00
81313;DHT22;70780;52.722;5.724;2023-07-20T12:09:37;24.20;58.00
81313;DHT22;70780;52.722;5.724;2023-07-20T12:12:10;24.10;58.00
81313;DHT22;70780;52.722;5.724;2023-07-20T12:14:42;24.10;58.00
81313;DHT22;70780;52.722;5.724;2023-07-20T12:17:13;24.10;58.00
81313;DHT22;70780;52.722;5.724;2023-07-20T12:19:42;24.10;58.00
81313;DHT22;70780;52.722;5.724;2023-07-20T12:22:12;24.10;58.00
81313;DHT22;70780;52.722;5.724;2023-07-20T12:24:42;24.10;58.00
81313;DHT22;70780;52.722;5.724;2023-07-20T12:27:13;24.10;58.00
81313;DHT22;70780;52.722;5.724;2023-07-20T12:29:46;24.20;58.00
81313;DHT22;70780;52.722;5.724;2023-07-20T12:32:15;24.20;58.00
81313;DHT22;70780;52.722;5.724;2023-07-20T12:34:45;24.20;57.90
81313;DHT22;70780;52.722;5.724;2023-07-20T12:37:14;24.20;57.90
81313;DHT22;70780;52.722;5.724;2023-07-20T12:39:46;24.30;57.80
81313;DHT22;70780;52.722;5.724;2023-07-20T12:42:15;24.30;57.90
81313;DHT22;70780;52.722;5.724;2023-07-20T12:44:48;24.40;57.80
81313;DHT22;70780;52.722;5.724;2023-07-20T12:47:18;24.40;57.80
81313;DHT22;70780;52.722;5.724;2023-07-20T12:49:47;24.40;57.70
81313;DHT22;70780;52.722;5.724;2023-07-20T12:52:17;24.40;56.40
81313;DHT22;70780;52.722;5.724;2023-07-20T12:54:46;24.40;55.40
81313;DHT22;70780;52.722;5.724;2023-07-20T12:57:15;24.50;54.50
81313;DHT22;70780;52.722;5.724;2023-07-20T12:59:47;24.50;54.00
81313;DHT22;70780;52.722;5.724;2023-07-20T13:02:16;24.50;53.90
81313;DHT22;70780;52.722;5.724;2023-07-20T13:04:46;24.60;53.90
81313;DHT22;70780;52.722;5.724;2023-07-20T13:07:15;24.60;54.00
81313;DHT22;70780;52.722;5.724;2023-07-20T13:09:44;24.70;54.00
81313;DHT22;70780;52.722;5.724;2023-07-20T16:23:39;25.90;53.70
81313;DHT22;70780;52.722;5.724;2023-07-20T16:26:08;25.80;53.70
81313;DHT22;70780;52.722;5.724;2023-07-20T16:28:38;25.80;53.70
81313;DHT22;70780;52.722;5.724;2023-07-20T16:31:10;25.80;53.80
81313;DHT22;70780;52.722;5.724;2023-07-20T16:33:39;25.80;53.80
81313;DHT22;70780;52.722;5.724;2023-07-20T16:36:09;25.70;53.90
81313;DHT22;70780;52.722;5.724;2023-07-20T16:38:42;25.60;54.00
81313;DHT22;70780;52.722;5.724;2023-07-20T16:41:11;25.60;54.00
81313;DHT22;70780;52.722;5.724;2023-07-20T16:43:41;25.60;54.10
81313;DHT22;70780;52.722;5.724;2023-07-20T16:46:10;25.60;54.20
81313;DHT22;70780;52.722;5.724;2023-07-20T16:48:40;25.60;54.20
81313;DHT22;70780;52.722;5.724;2023-07-20T16:51:09;25.60;54.10
81313;DHT22;70780;52.722;5.724;2023-07-20T16:53:41;25.60;54.10
81313;DHT22;70780;52.722;5.724;2023-07-20T16:56:11;25.70;54.10
81313;DHT22;70780;52.722;5.724;2023-07-20T16:58:40;25.70;54.00
81313;DHT22;70780;52.722;5.724;2023-07-20T17:01:09;25.70;54.00
81313;DHT22;70780;52.722;5.724;2023-07-20T17:03:39;25.60;54.00
81313;DHT22;70780;52.722;5.724;2023-07-20T17:06:09;25.60;53.90
81313;DHT22;70780;52.722;5.724;2023-07-20T17:08:42;25.60;53.90
81313;DHT22;70780;52.722;5.724;2023-07-20T17:11:11;25.60;53.90
81313;DHT22;70780;52.722;5.724;2023-07-20T17:13:40;25.60;54.00
81313;DHT22;70780;52.722;5.724;2023-07-20T17:16:10;25.60;54.00
81313;DHT22;70780;52.722;5.724;2023-07-20T17:18:39;25.50;54.10
81313;DHT22;70780;52.722;5.724;2023-07-20T17:21:08;25.50;54.20
81313;DHT22;70780;52.722;5.724;2023-07-20T17:23:38;25.50;54.30
81313;DHT22;70780;52.722;5.724;2023-07-20T17:26:09;25.50;54.40
81313;DHT22;70780;52.722;5.724;2023-07-20T17:28:40;25.40;54.60
81313;DHT22;70780;52.722;5.724;2023-07-20T17:31:10;25.40;54.70
81313;DHT22;70780;52.722;5.724;2023-07-20T17:33:39;25.40;54.70
81313;DHT22;70780;52.722;5.724;2023-07-20T17:36:08;25.40;54.80
81313;DHT22;70780;52.722;5.724;2023-07-20T17:38:38;25.30;55.00
81313;DHT22;70780;52.722;5.724;2023-07-20T17:41:09;25.30;55.10
81313;DHT22;70780;52.722;5.724;2023-07-20T17:43:39;25.30;55.30
81313;DHT22;70780;52.722;5.724;2023-07-20T17:46:08;25.30;55.40
81313;DHT22;70780;52.722;5.724;2023-07-20T17:48:38;25.30;55.50
81313;DHT22;70780;52.722;5.724;2023-07-20T17:51:07;25.30;55.50
81313;DHT22;70780;52.722;5.724;2023-07-20T17:53:36;25.20;55.60
81313;DHT22;70780;52.722;5.724;2023-07-20T17:56:06;25.20;55.70
81313;DHT22;70780;52.722;5.724;2023-07-20T17:58:38;25.20;55.70
81313;DHT22;70780;52.722;5.724;2023-07-20T18:01:07;25.20;55.70
81313;DHT22;70780;52.722;5.724;2023-07-20T18:03:36;25.20;55.80
81313;DHT22;70780;52.722;5.724;2023-07-20T18:06:06;25.20;55.80
81313;DHT22;70780;52.722;5.724;2023-07-20T18:08:36;25.10;55.80
81313;DHT22;70780;52.722;5.724;2023-07-20T18:11:07;25.10;55.00
81313;DHT22;70780;52.722;5.724;2023-07-20T18:13:39;25.00;53.30
81313;DHT22;70780;52.722;5.724;2023-07-20T18:16:09;25.00;52.00
81313;DHT22;70780;52.722;5.724;2023-07-20T18:18:38;24.80;52.30
81313;DHT22;70780;52.722;5.724;2023-07-20T18:21:07;24.70;52.70
81313;DHT22;70780;52.722;5.724;2023-07-20T18:23:39;24.70;52.80
81313;DHT22;70780;52.722;5.724;2023-07-20T18:26:08;24.70;52.90
81313;DHT22;70780;52.722;5.724;2023-07-20T18:28:41;24.70;53.00
81313;DHT22;70780;52.722;5.724;2023-07-20T18:31:10;24.70;53.10
81313;DHT22;70780;52.722;5.724;2023-07-20T18:33:40;24.70;53.30
81313;DHT22;70780;52.722;5.724;2023-07-20T18:36:09;24.70;53.40
81313;DHT22;70780;52.722;5.724;2023-07-20T18:38:38;24.70;53.60
81313;DHT22;70780;52.722;5.724;2023-07-20T18:41:08;24.70;53.70
81313;DHT22;70780;52.722;5.724;2023-07-20T18:43:41;24.70;53.80
81313;DHT22;70780;52.722;5.724;2023-07-20T18:46:10;24.70;53.90
81313;DHT22;70780;52.722;5.724;2023-07-20T18:48:39;24.60;54.00
81313;DHT22;70780;52.722;5.724;2023-07-20T18:51:09;24.60;54.00
81313;DHT22;70780;52.722;5.724;2023-07-20T18:53:38;24.60;54.20
81313;DHT22;70780;52.722;5.724;2023-07-20T18:56:08;24.60;54.20
81313;DHT22;70780;52.722;5.724;2023-07-20T18:58:37;24.60;54.30
81313;DHT22;70780;52.722;5.724;2023-07-20T19:01:09;24.60;54.40
81313;DHT22;70780;52.722;5.724;2023-07-20T19:03:40;24.60;54.50
81313;DHT22;70780;52.722;5.724;2023-07-20T19:06:09;24.60;54.50
81313;DHT22;70780;52.722;5.724;2023-07-20T19:08:41;24.60;54.60
81313;DHT22;70780;52.722;5.724;2023-07-20T19:11:10;24.60;54.60
81313;DHT22;70780;52.722;5.724;2023-07-20T19:13:39;24.60;54.70
81313;DHT22;70780;52.722;5.724;2023-07-20T19:16:11;24.60;54.70
81313;DHT22;70780;52.722;5.724;2023-07-20T19:18:41;24.50;54.70
81313;DHT22;70780;52.722;5.724;2023-07-20T19:21:10;24.50;54.80
81313;DHT22;70780;52.722;5.724;2023-07-20T19:23:41;24.50;54.90
81313;DHT22;70780;52.722;5.724;2023-07-20T19:26:10;24.50;55.00
81313;DHT22;70780;52.722;5.724;2023-07-20T19:28:40;24.50;55.10
81313;DHT22;70780;52.722;5.724;2023-07-20T19:31:11;24.50;55.10
81313;DHT22;70780;52.722;5.724;2023-07-20T19:33:41;24.50;55.20
81313;DHT22;70780;52.722;5.724;2023-07-20T19:36:10;24.50;55.20
81313;DHT22;70780;52.722;5.724;2023-07-20T19:38:39;24.50;55.30
81313;DHT22;70780;52.722;5.724;2023-07-20T19:41:09;24.50;55.40
81313;DHT22;70780;52.722;5.724;2023-07-20T19:43:38;24.50;55.40
81313;DHT22;70780;52.722;5.724;2023-07-20T19:46:12;24.40;55.50
81313;DHT22;70780;52.722;5.724;2023-07-20T19:48:41;24.40;55.50
81313;DHT22;70780;52.722;5.724;2023-07-20T19:51:11;24.40;55.60
81313;DHT22;70780;52.722;5.724;2023-07-20T19:53:40;24.40;55.60
81313;DHT22;70780;52.722;5.724;2023-07-20T19:56:09;24.40;55.70
81313;DHT22;70780;52.722;5.724;2023-07-20T19:58:39;24.40;55.70
81313;DHT22;70780;52.722;5.724;2023-07-20T20:01:10;24.40;55.70
81313;DHT22;70780;52.722;5.724;2023-07-20T20:03:40;24.40;55.70
81313;DHT22;70780;52.722;5.724;2023-07-20T20:06:09;24.40;55.80
81313;DHT22;70780;52.722;5.724;2023-07-20T20:08:38;24.40;55.80
81313;DHT22;70780;52.722;5.724;2023-07-20T20:11:08;24.40;55.80
81313;DHT22;70780;52.722;5.724;2023-07-20T20:13:37;24.40;55.80
81313;DHT22;70780;52.722;5.724;2023-07-20T20:16:07;24.40;55.80
81313;DHT22;70780;52.722;5.724;2023-07-20T20:18:39;24.40;55.80
81313;DHT22;70780;52.722;5.724;2023-07-20T20:21:10;24.30;55.90
81313;DHT22;70780;52.722;5.724;2023-07-20T21:41:40;23.60;55.90
81313;DHT22;70780;52.722;5.724;2023-07-20T21:44:10;23.60;55.90
81313;DHT22;70780;52.722;5.724;2023-07-20T21:46:39;23.60;55.90
81313;DHT22;70780;52.722;5.724;2023-07-20T21:49:08;23.60;55.80
81313;DHT22;70780;52.722;5.724;2023-07-20T21:51:38;23.60;55.70
81313;DHT22;70780;52.722;5.724;2023-07-20T21:54:07;23.60;55.70
81313;DHT22;70780;52.722;5.724;2023-07-20T21:56:36;23.60;55.70
81313;DHT22;70780;52.722;5.724;2023-07-20T21:59:08;23.60;55.70
81313;DHT22;70780;52.722;5.724;2023-07-20T22:01:38;23.60;55.70
81313;DHT22;70780;52.722;5.724;2023-07-20T22:04:07;23.60;55.70
81313;DHT22;70780;52.722;5.724;2023-07-20T22:06:36;23.60;55.70
81313;DHT22;70780;52.722;5.724;2023-07-20T22:09:10;23.60;55.80
81313;DHT22;70780;52.722;5.724;2023-07-20T22:11:40;23.70;55.80
81313;DHT22;70780;52.722;5.724;2023-07-20T22:14:12;23.60;55.80
81313;DHT22;70780;52.722;5.724;2023-07-20T22:16:43;23.70;55.80
81313;DHT22;70780;52.722;5.724;2023-07-20T22:19:13;23.70;55.90
81313;DHT22;70780;52.722;5.724;2023-07-20T22:21:45;23.70;55.90
